Time;durP1;ratioP1;P1;durP2;ratioP2;P2;SDS_P1;SDS_P2;PMS_P1;PMS_P2;Temp;Humidity;BMP_temperature;BMP_pressure;BME280_temperature;BME280_humidity;BME280_pressure;Samples;Min_cycle;Max_cycle;Signal;HPM_P1;HPM_P2
2022/12/23 00:01:19;;;;;;;;;;;;;;;18.10;47.60;99983.91;5151997;27;19930;-58
2022/12/23 00:03:45;;;;;;;;;;;;;;;18.11;47.59;99983.59;5152062;27;20161;-58
2022/12/23 00:06:12;;;;;;;;;;;;;;;18.12;47.70;99990.72;5151704;27;19929;-58
2022/12/23 00:08:37;;;;;;;;;;;;;;;18.12;47.45;99987.16;5151714;27;19934;-58
2022/12/23 00:11:04;;;;;;;;;;;;;;;18.12;47.72;99981.66;5152247;27;19950;-59
2022/12/23 00:16:15;;;;;;;;;;;;;;;18.11;47.59;99986.34;5136763;27;20395;-58
2022/12/23 00:18:41;;;;;;;;;;;;;;;18.11;47.47;99977.25;5152194;27;20458;-58
2022/12/23 00:21:07;;;;;;;;;;;;;;;18.11;47.54;99985.53;5144887;27;20439;-58
2022/12/23 00:23:35;;;;;;;;;;;;;;;18.10;47.59;99979.19;5112874;28;19924;-58
2022/12/23 00:26:01;;;;;;;;;;;;;;;18.11;47.64;99978.09;5113112;28;20406;-58
2022/12/23 00:28:26;;;;;;;;;;;;;;;18.11;47.77;99980.03;5139031;27;20022;-58
2022/12/23 00:30:53;;;;;;;;;;;;;;;18.10;47.82;99987.47;5128658;28;19927;-58
2022/12/23 00:33:20;;;;;;;;;;;;;;;18.11;47.61;99986.34;5131384;27;19966;-58
2022/12/23 00:35:45;;;;;;;;;;;;;;;18.11;47.47;99993.81;5131576;28;19924;-58
2022/12/23 00:38:11;;;;;;;;;;;;;;;18.11;47.78;99991.84;5131476;28;20583;-58
2022/12/23 00:43:22;;;;;;;;;;;;;;;18.10;47.74;99997.69;5107641;28;19966;-59
2022/12/23 00:45:48;;;;;;;;;;;;;;;18.10;47.60;99994.91;5131173;28;20189;-58
2022/12/23 00:50:59;;;;;;;;;;;;;;;18.11;47.68;99999.31;5122179;27;20403;-58
2022/12/23 00:53:25;;;;;;;;;;;;;;;18.11;47.68;99999.31;5151291;27;19923;-58
2022/12/23 00:55:51;;;;;;;;;;;;;;;18.10;47.66;99992.97;5132994;27;19927;-58
2022/12/23 00:58:16;;;;;;;;;;;;;;;18.10;47.67;99995.75;5132769;27;19927;-58
2022/12/23 01:06:13;;;;;;;;;;;;;;;18.11;47.60;100002.06;5136028;27;19933;-58
2022/12/23 01:08:39;;;;;;;;;;;;;;;18.10;47.61;100006.75;5132541;27;19927;-58
2022/12/23 01:11:06;;;;;;;;;;;;;;;18.09;47.74;100010.63;5151184;27;19927;-58
2022/12/23 01:13:32;;;;;;;;;;;;;;;18.10;47.56;100014.22;5151220;27;19931;-58
2022/12/23 01:16:02;;;;;;;;;;;;;;;18.09;47.54;100020.81;5151206;27;19930;-58
2022/12/23 01:18:27;;;;;;;;;;;;;;;18.09;47.71;100027.16;5139682;27;20392;-58
2022/12/23 01:20:53;;;;;;;;;;;;;;;18.09;47.79;100035.44;5148289;27;20359;-58
2022/12/23 01:23:18;;;;;;;;;;;;;;;18.09;47.56;100027.16;5130343;27;19995;-58
2022/12/23 01:25:44;;;;;;;;;;;;;;;18.10;47.59;100034.31;5130486;28;19927;-58
2022/12/23 01:28:09;;;;;;;;;;;;;;;18.09;47.87;100038.19;5136345;27;19931;-58
2022/12/23 01:30:36;;;;;;;;;;;;;;;18.09;47.80;100031.84;5148879;27;19946;-58
2022/12/23 01:33:02;;;;;;;;;;;;;;;18.10;47.59;100041.75;5110964;28;19927;-58
2022/12/23 01:35:27;;;;;;;;;;;;;;;18.08;47.58;100039.28;5111268;28;20037;-58
2022/12/23 01:37:53;;;;;;;;;;;;;;;18.09;47.70;100037.34;5130486;28;19934;-58
2022/12/23 01:40:18;;;;;;;;;;;;;;;18.09;47.71;100032.69;5130317;27;19935;-58
2022/12/23 01:42:45;;;;;;;;;;;;;;;18.09;47.58;100040.94;5129922;27;19931;-58
2022/12/23 01:45:12;;;;;;;;;;;;;;;18.09;47.61;100045.59;5129946;28;19970;-58
2022/12/23 01:47:39;;;;;;;;;;;;;;;18.08;47.79;100047.53;5130115;28;19931;-58
2022/12/23 01:50:10;;;;;;;;;;;;;;;18.09;47.74;100051.97;5123189;27;19928;-58
2022/12/23 01:52:41;;;;;;;;;;;;;;;18.09;47.58;100060.22;5128053;27;19928;-58
2022/12/23 01:55:06;;;;;;;;;;;;;;;18.09;47.62;100051.97;5129712;28;20015;-58
2022/12/23 01:57:32;;;;;;;;;;;;;;;18.08;47.75;100052.25;5112383;27;19932;-58
2022/12/23 02:05:29;;;;;;;;;;;;;;;18.08;47.68;100053.06;5114448;28;19924;-58
2022/12/23 02:11:00;;;;;;;;;;;;;;;18.09;47.72;100042.84;5115694;27;19931;-58
2022/12/23 02:13:35;;;;;;;;;;;;;;;18.09;47.81;100048.38;5134901;27;19927;-58
2022/12/23 02:16:18;;;;;;;;;;;;;;;18.09;47.68;100045.59;5150427;27;19931;-58
2022/12/23 02:19:04;;;;;;;;;;;;;;;18.08;47.55;100053.06;5150351;27;19924;-58
2022/12/23 02:21:50;;;;;;;;;;;;;;;18.09;47.82;100053.88;5134654;27;19927;-58
2022/12/23 02:24:35;;;;;;;;;;;;;;;18.09;47.74;100051.13;5134174;27;20371;-58
2022/12/23 02:27:09;;;;;;;;;;;;;;;18.08;47.62;100072.34;5134831;27;20196;-58
2022/12/23 02:29:54;;;;;;;;;;;;;;;18.09;47.82;100075.91;5149473;27;19923;-58
2022/12/23 02:32:24;;;;;;;;;;;;;;;18.09;47.64;100084.19;5134532;27;20379;-58
2022/12/23 02:34:52;;;;;;;;;;;;;;;18.08;47.77;100083.38;5150001;27;19923;-58
2022/12/23 02:37:20;;;;;;;;;;;;;;;18.09;47.66;100089.69;5150077;27;19946;-58
2022/12/23 02:39:51;;;;;;;;;;;;;;;18.08;47.82;100093.56;5150039;27;20349;-58
2022/12/23 02:42:17;;;;;;;;;;;;;;;18.08;47.71;100099.91;5150010;27;20015;-58
2022/12/23 02:44:47;;;;;;;;;;;;;;;18.08;47.53;100094.38;5149429;27;19930;-58
2022/12/23 02:47:18;;;;;;;;;;;;;;;18.09;47.66;100100.72;5130781;27;20137;-58
2022/12/23 02:49:46;;;;;;;;;;;;;;;18.08;47.71;100102.66;5130812;27;19967;-59
2022/12/23 02:52:12;;;;;;;;;;;;;;;18.08;47.89;100096.31;5131049;27;19981;-59
2022/12/23 02:54:39;;;;;;;;;;;;;;;18.07;47.62;100095.50;5130784;27;19931;-58
2022/12/23 02:57:05;;;;;;;;;;;;;;;18.08;47.79;100104.59;5149351;27;19962;-58
2022/12/23 02:59:46;;;;;;;;;;;;;;;18.07;47.70;100106.53;5149357;27;19934;-58
2022/12/23 03:02:11;;;;;;;;;;;;;;;18.07;47.81;100106.53;5148681;27;19970;-58
2022/12/23 03:04:40;;;;;;;;;;;;;;;18.08;47.63;100115.63;5130951;27;19927;-58
2022/12/23 03:07:06;;;;;;;;;;;;;;;18.08;47.69;100121.13;5149693;27;19966;-59
2022/12/23 03:09:54;;;;;;;;;;;;;;;18.07;47.67;100131.31;5148795;27;20271;-59
2022/12/23 03:12:21;;;;;;;;;;;;;;;18.07;47.75;100141.53;5133687;27;19934;-58
2022/12/23 03:17:50;;;;;;;;;;;;;;;18.07;47.83;100153.38;5188355;27;20392;-56
2022/12/23 03:20:33;;;;;;;;;;;;;;;18.08;47.70;100159.69;5172802;27;19973;-56
2022/12/23 03:23:02;;;;;;;;;;;;;;;18.07;47.82;100163.56;5176116;27;20438;-56
2022/12/23 03:25:32;;;;;;;;;;;;;;;18.07;47.80;100156.13;5188136;27;19929;-56
2022/12/23 03:28:00;;;;;;;;;;;;;;;18.08;47.69;100156.94;5187754;27;19973;-56
2022/12/23 03:30:25;;;;;;;;;;;;;;;18.07;47.76;100147.03;5168705;27;20318;-56
2022/12/23 03:32:52;;;;;;;;;;;;;;;18.08;47.66;100140.41;5148834;27;20381;-56
2022/12/23 03:35:20;;;;;;;;;;;;;;;18.07;47.70;100138.78;5148228;27;20355;-56
2022/12/23 03:37:47;;;;;;;;;;;;;;;18.07;47.62;100144.28;5167433;27;20462;-56
2022/12/23 03:40:15;;;;;;;;;;;;;;;18.08;47.63;100148.69;5148437;27;19962;-55
2022/12/23 03:42:41;;;;;;;;;;;;;;;18.07;47.63;100147.03;5166970;27;20362;-56
2022/12/23 03:45:08;;;;;;;;;;;;;;;18.08;47.72;100145.91;5167094;27;19933;-56
2022/12/23 03:47:54;;;;;;;;;;;;;;;18.07;47.73;100136.03;5151077;27;19993;-56
2022/12/23 03:50:20;;;;;;;;;;;;;;;18.07;47.67;100142.34;5168592;27;19958;-56
2022/12/23 03:52:48;;;;;;;;;;;;;;;18.08;47.78;100145.91;5168511;27;19975;-56
2022/12/23 03:55:16;;;;;;;;;;;;;;;18.06;47.81;100140.72;5187889;27;19927;-56
2022/12/23 03:57:44;;;;;;;;;;;;;;;18.07;47.93;100141.53;5187714;27;19923;-56
2022/12/23 04:00:10;;;;;;;;;;;;;;;18.07;47.79;100136.03;5168568;27;19923;-56
2022/12/23 04:02:55;;;;;;;;;;;;;;;18.07;47.75;100138.78;5162435;27;19987;-55
2022/12/23 04:05:36;;;;;;;;;;;;;;;18.07;47.83;100147.03;5151093;27;19933;-56
2022/12/23 04:08:04;;;;;;;;;;;;;;;18.05;47.81;100142.66;5166420;27;20027;-56
2022/12/23 04:10:29;;;;;;;;;;;;;;;18.07;47.81;100153.38;5166072;27;20374;-56
2022/12/23 04:12:55;;;;;;;;;;;;;;;18.07;47.84;100149.81;5166439;27;20446;-56
2022/12/23 04:15:21;;;;;;;;;;;;;;;18.05;47.77;100142.66;5166321;27;19927;-56
2022/12/23 04:17:47;;;;;;;;;;;;;;;18.06;47.76;100143.47;5166650;27;19967;-56
2022/12/23 04:20:12;;;;;;;;;;;;;;;18.07;47.83;100136.03;5147829;27;20377;-56
2022/12/23 04:22:38;;;;;;;;;;;;;;;18.07;47.74;100133.25;5166103;27;20428;-56
2022/12/23 04:25:04;;;;;;;;;;;;;;;18.06;47.73;100143.47;5165442;27;19935;-56
2022/12/23 04:27:30;;;;;;;;;;;;;;;18.06;47.84;100140.72;5158868;27;20272;-56
2022/12/23 04:29:55;;;;;;;;;;;;;;;18.06;47.80;100151.72;5151916;27;19931;-56
2022/12/23 04:32:21;;;;;;;;;;;;;;;18.06;47.90;100146.22;5135171;27;19927;-56
2022/12/23 04:34:46;;;;;;;;;;;;;;;18.07;47.81;100152.56;5131398;28;20023;-56
2022/12/23 04:37:12;;;;;;;;;;;;;;;18.07;47.82;100144.28;5131571;28;19981;-56
2022/12/23 04:39:37;;;;;;;;;;;;;;;18.06;47.81;100148.97;5131621;28;19923;-56
2022/12/23 04:42:03;;;;;;;;;;;;;;;18.06;47.75;100148.97;5131421;27;19927;-56
2022/12/23 04:44:29;;;;;;;;;;;;;;;18.07;47.81;100147.03;5131475;28;19927;-56
2022/12/23 04:46:54;;;;;;;;;;;;;;;18.07;47.93;100147.03;5131502;28;19927;-56
2022/12/23 04:49:20;;;;;;;;;;;;;;;18.06;47.97;100160.00;5156514;27;19929;-56
2022/12/23 04:51:45;;;;;;;;;;;;;;;18.06;47.79;100160.00;5149323;27;19924;-56
2022/12/23 04:54:11;;;;;;;;;;;;;;;18.05;47.60;100153.69;5130432;27;19927;-56
2022/12/23 04:56:37;;;;;;;;;;;;;;;18.06;47.70;100151.72;5130962;28;19934;-55
2022/12/23 04:59:03;;;;;;;;;;;;;;;18.06;47.74;100154.50;5144340;27;20282;-56
2022/12/23 05:01:28;;;;;;;;;;;;;;;18.06;47.81;100157.25;5142390;27;20371;-56
2022/12/23 05:03:54;;;;;;;;;;;;;;;18.06;47.79;100168.28;5130917;27;19938;-56
2022/12/23 05:06:20;;;;;;;;;;;;;;;18.05;47.84;100161.94;5112292;28;19930;-56
2022/12/23 05:08:45;;;;;;;;;;;;;;;18.05;47.71;100164.69;5130950;28;20055;-56
2022/12/23 05:11:11;;;;;;;;;;;;;;;18.06;47.79;100165.50;5130746;27;19953;-56
2022/12/23 05:13:36;;;;;;;;;;;;;;;18.05;47.84;100164.69;5130894;27;19923;-56
2022/12/23 05:16:02;;;;;;;;;;;;;;;18.06;47.76;100176.53;5130943;28;19927;-56
2022/12/23 05:18:27;;;;;;;;;;;;;;;18.07;47.79;100166.31;5131034;28;20320;-56
2022/12/23 05:20:53;;;;;;;;;;;;;;;18.05;47.88;100164.69;5130544;27;19928;-56
2022/12/23 05:23:18;;;;;;;;;;;;;;;18.05;47.82;100167.44;5130559;27;19927;-56
2022/12/23 05:25:48;;;;;;;;;;;;;;;18.06;47.84;100157.25;5130647;28;20340;-56
2022/12/23 05:28:14;;;;;;;;;;;;;;;18.06;47.74;100160.00;5137383;27;19931;-55
2022/12/23 05:30:39;;;;;;;;;;;;;;;18.05;47.84;100161.94;5129833;27;19934;-56
2022/12/23 05:33:05;;;;;;;;;;;;;;;18.05;47.97;100164.69;5130666;27;20359;-56
2022/12/23 05:35:31;;;;;;;;;;;;;;;18.06;47.49;100162.75;5129908;28;19927;-56
2022/12/23 05:37:57;;;;;;;;;;;;;;;18.06;47.81;100165.50;5130001;28;19965;-56
2022/12/23 05:40:22;;;;;;;;;;;;;;;18.05;47.81;100161.94;5110913;28;19989;-56
2022/12/23 05:42:52;;;;;;;;;;;;;;;18.05;48.05;100172.16;5138997;27;19927;-56
2022/12/23 05:45:17;;;;;;;;;;;;;;;18.05;47.75;100177.66;5151164;27;19961;-56
2022/12/23 05:47:43;;;;;;;;;;;;;;;18.05;47.82;100183.97;5151243;27;19945;-56
2022/12/23 05:50:09;;;;;;;;;;;;;;;18.06;47.89;100193.06;5169844;27;19922;-56
2022/12/23 05:52:34;;;;;;;;;;;;;;;18.05;47.90;100200.50;5133312;27;19931;-56
2022/12/23 05:55:00;;;;;;;;;;;;;;;18.06;47.88;100209.59;5129744;28;19934;-56
2022/12/23 05:57:25;;;;;;;;;;;;;;;18.05;47.95;100211.53;5130384;28;19927;-55
2022/12/23 05:59:51;;;;;;;;;;;;;;;18.06;47.88;100209.59;5129428;28;19930;-55
2022/12/23 06:02:17;;;;;;;;;;;;;;;18.05;47.79;100211.53;5145692;27;19927;-56
2022/12/23 06:04:43;;;;;;;;;;;;;;;18.05;48.02;100208.78;5150616;27;19923;-56
2022/12/23 06:07:08;;;;;;;;;;;;;;;18.05;47.80;100217.03;5149886;27;19934;-56
2022/12/23 06:09:34;;;;;;;;;;;;;;;18.05;47.98;100219.81;5150613;27;20419;-56
2022/12/23 06:11:59;;;;;;;;;;;;;;;18.06;47.92;100217.88;5150497;27;19930;-56
2022/12/23 06:14:25;;;;;;;;;;;;;;;18.05;48.02;100222.56;5150327;27;19933;-56
2022/12/23 06:16:54;;;;;;;;;;;;;;;18.05;47.84;100227.25;5150614;27;19927;-56
2022/12/23 06:19:20;;;;;;;;;;;;;;;18.05;47.92;100222.56;5150732;27;19923;-56
2022/12/23 06:21:46;;;;;;;;;;;;;;;18.04;48.08;100215.38;5149772;27;19979;-56
2022/12/23 06:24:11;;;;;;;;;;;;;;;18.05;47.79;100206.03;5149649;27;19934;-56
2022/12/23 06:26:37;;;;;;;;;;;;;;;18.05;47.92;100205.22;5150461;27;19926;-56
2022/12/23 06:29:02;;;;;;;;;;;;;;;18.05;47.85;100202.44;5147942;27;19923;-56
2022/12/23 06:31:28;;;;;;;;;;;;;;;18.05;47.85;100195.00;5149449;27;19931;-56
2022/12/23 06:33:53;;;;;;;;;;;;;;;18.05;47.90;100195.00;5150044;27;19938;-56
2022/12/23 06:36:19;;;;;;;;;;;;;;;18.04;47.97;100190.59;5149336;27;20416;-56
2022/12/23 06:38:45;;;;;;;;;;;;;;;18.05;47.75;100188.69;5149635;27;19923;-56
2022/12/23 06:41:11;;;;;;;;;;;;;;;18.06;47.84;100193.06;5150155;27;20426;-56
2022/12/23 06:43:36;;;;;;;;;;;;;;;18.05;47.86;100186.75;5149363;27;19942;-56
2022/12/23 06:46:02;;;;;;;;;;;;;;;18.04;47.75;100190.59;5149210;27;19973;-56
2022/12/23 06:48:27;;;;;;;;;;;;;;;18.04;47.81;100179.56;5154902;27;20327;-56
2022/12/23 06:50:53;;;;;;;;;;;;;;;18.05;47.89;100186.75;5161080;27;20413;-56
2022/12/23 06:53:18;;;;;;;;;;;;;;;18.04;47.83;100190.59;5128886;27;19931;-56
2022/12/23 06:55:44;;;;;;;;;;;;;;;18.05;48.04;100180.41;5128803;28;19931;-56
2022/12/23 06:58:10;;;;;;;;;;;;;;;18.05;47.84;100185.91;5135355;27;19930;-55
2022/12/23 07:00:35;;;;;;;;;;;;;;;18.04;47.77;100182.31;5148094;27;19923;-56
2022/12/23 07:03:01;;;;;;;;;;;;;;;18.05;47.96;100183.16;5129192;27;19927;-56
2022/12/23 07:05:26;;;;;;;;;;;;;;;18.05;48.00;100183.97;5128670;28;19924;-56
2022/12/23 07:08:01;;;;;;;;;;;;;;;18.05;48.02;100192.25;5128627;28;19967;-56
2022/12/23 07:10:27;;;;;;;;;;;;;;;18.05;48.01;100194.19;5129013;28;19934;-56
2022/12/23 07:12:52;;;;;;;;;;;;;;;18.05;48.00;100207.97;5129103;27;19927;-56
2022/12/23 07:15:18;;;;;;;;;;;;;;;18.05;47.83;100227.25;5129178;28;19931;-56
2022/12/23 07:17:44;;;;;;;;;;;;;;;18.05;47.88;100236.34;5129241;28;20352;-56
2022/12/23 07:20:11;;;;;;;;;;;;;;;18.04;48.01;100251.19;5128666;28;19923;-56
2022/12/23 07:22:37;;;;;;;;;;;;;;;18.05;47.89;100255.63;5128600;27;19974;-56
2022/12/23 07:25:03;;;;;;;;;;;;;;;18.05;47.90;100263.06;5128718;28;19927;-56
2022/12/23 07:27:28;;;;;;;;;;;;;;;18.04;48.28;100261.41;5129315;27;19924;-55
2022/12/23 07:29:54;;;;;;;;;;;;;;;18.05;48.15;100271.34;5148660;27;19934;-56
2022/12/23 07:32:19;;;;;;;;;;;;;;;18.05;47.88;100274.91;5133054;27;20051;-56
2022/12/23 07:34:45;;;;;;;;;;;;;;;18.05;47.89;100263.06;5128818;28;19942;-56
2022/12/23 07:37:10;;;;;;;;;;;;;;;18.05;47.84;100263.06;5128387;28;20320;-56
2022/12/23 07:39:36;;;;;;;;;;;;;;;18.04;47.85;100264.16;5128471;28;19934;-56
2022/12/23 07:42:02;;;;;;;;;;;;;;;18.05;47.98;100271.34;5129509;27;20004;-56
2022/12/23 07:44:47;;;;;;;;;;;;;;;18.05;48.00;100265.81;5133811;27;19927;-56
2022/12/23 07:47:14;;;;;;;;;;;;;;;18.04;47.85;100261.41;5149537;27;19927;-56
2022/12/23 07:49:39;;;;;;;;;;;;;;;18.04;47.92;100261.41;5164226;27;19954;-56
2022/12/23 07:52:05;;;;;;;;;;;;;;;18.05;47.89;100257.56;5140875;27;19923;-56
2022/12/23 07:54:30;;;;;;;;;;;;;;;18.04;47.90;100251.19;5128320;28;20382;-55
2022/12/23 07:56:57;;;;;;;;;;;;;;;18.05;47.95;100258.38;5128510;28;19927;-56
2022/12/23 07:59:24;;;;;;;;;;;;;;;18.03;48.04;100260.59;5144641;27;19931;-56
2022/12/23 08:01:49;;;;;;;;;;;;;;;18.05;48.04;100243.78;5118785;28;19963;-56
2022/12/23 08:04:15;;;;;;;;;;;;;;;18.05;47.97;100250.09;5131312;27;19947;-56
2022/12/23 08:06:41;;;;;;;;;;;;;;;18.04;47.85;100247.63;5131820;28;19928;-56
2022/12/23 08:09:08;;;;;;;;;;;;;;;18.05;47.84;100254.81;5131793;28;19936;-56
2022/12/23 08:11:33;;;;;;;;;;;;;;;18.04;48.01;100258.66;5131358;27;19927;-56
2022/12/23 08:13:59;;;;;;;;;;;;;;;18.04;47.81;100251.19;5131379;27;19938;-56
2022/12/23 08:16:24;;;;;;;;;;;;;;;18.04;48.01;100251.19;5132142;28;19976;-56
2022/12/23 08:18:50;;;;;;;;;;;;;;;18.04;48.00;100248.44;5132125;28;19930;-56
2022/12/23 08:21:18;;;;;;;;;;;;;;;18.05;47.93;100254.81;5131460;27;19927;-56
2022/12/23 08:23:45;;;;;;;;;;;;;;;18.05;47.88;100241.84;5131257;27;19974;-55
2022/12/23 08:26:13;;;;;;;;;;;;;;;18.05;47.88;100243.78;5131788;28;20121;-56
2022/12/23 08:28:39;;;;;;;;;;;;;;;18.04;47.96;100240.19;5123107;27;19934;-56
2022/12/23 08:31:05;;;;;;;;;;;;;;;18.05;47.94;100235.50;5128004;28;19974;-56
2022/12/23 08:33:31;;;;;;;;;;;;;;;18.04;47.82;100240.19;5146208;27;19923;-56
2022/12/23 08:35:57;;;;;;;;;;;;;;;18.04;47.90;100231.91;5152188;27;19973;-56
2022/12/23 08:38:22;;;;;;;;;;;;;;;18.03;47.96;100226.69;5152152;27;19927;-56
2022/12/23 08:40:48;;;;;;;;;;;;;;;18.04;48.09;100218.13;5149143;27;20443;-56
2022/12/23 08:43:13;;;;;;;;;;;;;;;18.05;48.00;100230.00;5131152;27;19927;-56
2022/12/23 08:45:39;;;;;;;;;;;;;;;18.04;47.91;100228.34;5131041;28;20444;-56
2022/12/23 08:48:05;;;;;;;;;;;;;;;18.04;48.01;100233.84;5135303;27;19934;-56
2022/12/23 08:50:35;;;;;;;;;;;;;;;18.05;47.85;100210.72;5170939;27;19967;-56
2022/12/23 08:53:00;;;;;;;;;;;;;;;18.04;47.92;100214.56;5112379;28;19959;-56
2022/12/23 08:55:26;;;;;;;;;;;;;;;18.05;47.83;100232.75;5130996;28;20449;-56
2022/12/23 08:57:51;;;;;;;;;;;;;;;18.04;48.08;100220.88;5134630;27;19927;-56
2022/12/23 09:00:17;;;;;;;;;;;;;;;18.04;48.08;100229.16;5151592;27;19930;-56
2022/12/23 09:02:43;;;;;;;;;;;;;;;18.04;47.88;100231.91;5132741;27;19934;-56
2022/12/23 09:05:08;;;;;;;;;;;;;;;18.04;47.94;100242.13;5130754;28;19953;-56
2022/12/23 09:07:34;;;;;;;;;;;;;;;18.04;47.81;100245.69;5131165;28;19945;-56
2022/12/23 09:10:00;;;;;;;;;;;;;;;18.04;47.85;100239.34;5130655;28;20283;-56
2022/12/23 09:12:25;;;;;;;;;;;;;;;18.04;47.90;100242.13;5130971;27;19923;-56
2022/12/23 09:14:51;;;;;;;;;;;;;;;18.03;47.93;100241.28;5130841;27;20330;-56
2022/12/23 09:17:16;;;;;;;;;;;;;;;18.04;47.90;100234.66;5130549;28;20317;-56
2022/12/23 09:19:42;;;;;;;;;;;;;;;18.04;47.93;100231.91;5131017;28;19945;-56
2022/12/23 09:22:15;;;;;;;;;;;;;;;18.04;47.82;100222.81;5130840;27;19938;-55
2022/12/23 09:24:41;;;;;;;;;;;;;;;18.04;47.90;100220.88;5130141;28;20269;-56
2022/12/23 09:27:06;;;;;;;;;;;;;;;18.04;47.91;100220.06;5130678;28;20347;-56
2022/12/23 09:29:32;;;;;;;;;;;;;;;18.05;47.81;100213.47;5147960;27;19927;-56
2022/12/23 09:31:57;;;;;;;;;;;;;;;18.05;47.92;100218.97;5137959;27;19949;-56
2022/12/23 09:34:25;;;;;;;;;;;;;;;18.05;47.91;100216.22;5142009;27;19927;-56
2022/12/23 09:36:50;;;;;;;;;;;;;;;18.05;47.98;100207.97;5151416;27;20398;-56
2022/12/23 09:39:20;;;;;;;;;;;;;;;18.04;47.82;100193.34;5151415;27;20172;-56
2022/12/23 09:41:49;;;;;;;;;;;;;;;18.04;47.87;100190.59;5151145;27;19927;-56
2022/12/23 09:44:35;;;;;;;;;;;;;;;18.04;48.18;100198.03;5150843;27;19926;-56
2022/12/23 09:47:01;;;;;;;;;;;;;;;18.04;47.95;100198.03;5135103;27;19962;-56
2022/12/23 09:49:27;;;;;;;;;;;;;;;18.05;47.92;100202.44;5150795;27;19970;-55
2022/12/23 09:51:54;;;;;;;;;;;;;;;18.05;47.89;100197.75;5150501;27;19980;-56
2022/12/23 09:54:20;;;;;;;;;;;;;;;18.04;47.94;100178.75;5132168;27;19977;-56
2022/12/23 09:57:06;;;;;;;;;;;;;;;18.04;47.91;100168.53;5151019;27;19985;-56
2022/12/23 09:59:51;;;;;;;;;;;;;;;18.04;48.00;100171.28;5134950;27;19966;-55
2022/12/23 10:02:37;;;;;;;;;;;;;;;18.04;47.92;100162.22;5134969;27;19966;-56
2022/12/23 10:05:23;;;;;;;;;;;;;;;18.04;47.93;100151.19;5134997;27;20267;-55
2022/12/23 10:07:53;;;;;;;;;;;;;;;18.04;47.86;100170.47;5135327;27;19933;-56
2022/12/23 10:10:25;;;;;;;;;;;;;;;18.04;47.84;100170.47;5150600;27;19962;-56
2022/12/23 10:12:51;;;;;;;;;;;;;;;18.05;47.85;100163.88;5131933;27;19966;-56
2022/12/23 10:15:19;;;;;;;;;;;;;;;18.05;47.91;100155.63;5132051;27;19934;-56
2022/12/23 10:17:44;;;;;;;;;;;;;;;18.05;47.92;100150.09;5150830;27;19931;-56
2022/12/23 10:20:17;;;;;;;;;;;;;;;18.04;47.85;100140.16;5150782;27;19923;-56
2022/12/23 10:22:43;;;;;;;;;;;;;;;18.04;48.00;100134.66;5149660;27;20381;-56
2022/12/23 10:25:12;;;;;;;;;;;;;;;18.04;47.81;100121.69;5130961;27;20314;-56
2022/12/23 10:27:38;;;;;;;;;;;;;;;18.05;48.08;100117.03;5150614;27;19923;-55
2022/12/23 10:30:20;;;;;;;;;;;;;;;18.04;47.97;100102.41;5149914;27;20383;-56
2022/12/23 10:33:21;;;;;;;;;;;;;;;18.05;47.88;100103.25;5103687;28;19935;-56
2022/12/23 10:35:49;;;;;;;;;;;;;;;18.04;47.96;100118.13;5139788;27;19923;-56
2022/12/23 10:38:22;;;;;;;;;;;;;;;18.05;47.94;100115.09;5151386;27;20318;-56
2022/12/23 10:40:50;;;;;;;;;;;;;;;18.05;47.95;100128.06;5151560;27;19939;-56
2022/12/23 10:43:36;;;;;;;;;;;;;;;18.04;48.18;100113.44;5139565;27;19972;-56
2022/12/23 10:46:22;;;;;;;;;;;;;;;18.05;47.92;100103.25;5112453;28;19934;-56
2022/12/23 10:48:51;;;;;;;;;;;;;;;18.05;47.86;100108.78;5115029;28;20317;-56
2022/12/23 10:51:20;;;;;;;;;;;;;;;18.05;47.93;100104.06;5111787;28;19931;-56
2022/12/23 10:53:47;;;;;;;;;;;;;;;18.04;47.99;100093.34;5129916;27;19927;-56
2022/12/23 10:56:13;;;;;;;;;;;;;;;18.04;47.88;100093.34;5130100;28;20442;-56
2022/12/23 10:58:40;;;;;;;;;;;;;;;18.03;48.03;100078.75;5140344;27;19934;-56
2022/12/23 11:01:06;;;;;;;;;;;;;;;18.05;47.95;100075.72;5145740;27;19924;-56
2022/12/23 11:03:43;;;;;;;;;;;;;;;18.04;47.91;100091.41;5112999;28;19966;-56
2022/12/23 11:06:08;;;;;;;;;;;;;;;18.04;48.03;100072.09;5130349;28;19927;-56
2022/12/23 11:08:34;;;;;;;;;;;;;;;18.04;48.00;100074.88;5130076;28;19930;-56
2022/12/23 11:11:00;;;;;;;;;;;;;;;18.04;48.12;100065.78;5129777;27;20143;-56
2022/12/23 11:13:34;;;;;;;;;;;;;;;18.05;47.89;100064.69;5142655;27;19927;-56
2022/12/23 11:16:19;;;;;;;;;;;;;;;18.05;48.01;100072.94;5150703;27;19930;-56
2022/12/23 11:19:05;;;;;;;;;;;;;;;18.05;47.88;100065.50;5135523;27;19933;-56
2022/12/23 11:21:31;;;;;;;;;;;;;;;18.05;48.02;100059.19;5135588;27;19923;-55
2022/12/23 11:24:17;;;;;;;;;;;;;;;18.05;48.13;100051.72;5132108;27;20408;-56
2022/12/23 11:26:44;;;;;;;;;;;;;;;18.04;47.99;100041.81;5115156;28;19924;-56
2022/12/23 11:29:11;;;;;;;;;;;;;;;18.05;47.92;100026.94;5144242;27;19966;-56
2022/12/23 11:31:36;;;;;;;;;;;;;;;18.04;48.07;100019.75;5150859;27;19975;-56
2022/12/23 11:34:04;;;;;;;;;;;;;;;18.04;48.04;100011.50;5132212;27;19924;-56
2022/12/23 11:36:30;;;;;;;;;;;;;;;18.05;48.08;100018.66;5151061;27;19974;-56
2022/12/23 11:41:46;;;;;;;;;;;;;;;18.04;48.00;100008.75;5189480;27;19950;-56
2022/12/23 11:44:27;;;;;;;;;;;;;;;18.05;47.98;99982.03;5150714;27;19923;-55
2022/12/23 11:46:53;;;;;;;;;;;;;;;18.04;48.10;99974.88;5168863;27;19927;-56
2022/12/23 11:49:20;;;;;;;;;;;;;;;18.04;47.95;99964.66;5149946;27;20047;-56
2022/12/23 11:51:47;;;;;;;;;;;;;;;18.05;47.89;99954.47;5160871;27;19969;-56
2022/12/23 11:54:15;;;;;;;;;;;;;;;18.05;48.10;99943.47;5170356;27;19923;-56
2022/12/23 11:56:40;;;;;;;;;;;;;;;18.05;48.03;99940.72;5170877;27;20321;-56
2022/12/23 11:59:07;;;;;;;;;;;;;;;18.04;47.95;99931.59;5174867;27;19948;-56
2022/12/23 12:01:32;;;;;;;;;;;;;;;18.04;47.96;99920.56;5177722;27;20389;-56
2022/12/23 12:04:00;;;;;;;;;;;;;;;18.05;47.91;99913.16;5171466;27;19926;-56
2022/12/23 12:06:25;;;;;;;;;;;;;;;18.05;48.10;99904.88;5168675;27;19923;-56
2022/12/23 12:08:51;;;;;;;;;;;;;;;18.05;47.90;99899.38;5168554;27;19930;-55
2022/12/23 12:11:18;;;;;;;;;;;;;;;18.04;48.02;99912.31;5167912;27;19948;-56
2022/12/23 12:13:44;;;;;;;;;;;;;;;18.05;48.04;99907.66;5149451;27;19975;-56
2022/12/23 12:16:29;;;;;;;;;;;;;;;18.04;47.96;99906.81;5168484;27;19954;-56
2022/12/23 12:18:56;;;;;;;;;;;;;;;18.04;48.00;99897.72;5152839;27;19923;-56
2022/12/23 12:21:23;;;;;;;;;;;;;;;18.04;47.96;99909.56;5168255;27;19954;-56
2022/12/23 12:23:50;;;;;;;;;;;;;;;18.05;47.88;99904.88;5167794;27;19923;-56
2022/12/23 12:26:34;;;;;;;;;;;;;;;18.05;47.99;99899.38;5127022;27;20001;-56
2022/12/23 12:29:19;;;;;;;;;;;;;;;18.05;47.94;99899.38;5121105;27;19961;-56
2022/12/23 12:31:47;;;;;;;;;;;;;;;18.04;47.88;99881.19;5142343;27;19927;-56
2022/12/23 12:37:16;;;;;;;;;;;;;;;18.05;48.15;99871.84;5190095;27;19925;-56
2022/12/23 12:39:44;;;;;;;;;;;;;;;18.04;48.12;99862.72;5174274;27;19945;-56
2022/12/23 12:42:14;;;;;;;;;;;;;;;18.04;48.09;99850.88;5156308;27;19927;-56
2022/12/23 12:44:59;;;;;;;;;;;;;;;18.04;48.13;99850.88;5150084;27;20367;-56
2022/12/23 12:47:26;;;;;;;;;;;;;;;18.04;48.11;99840.69;5153235;27;19923;-56
2022/12/23 12:50:12;;;;;;;;;;;;;;;18.05;47.98;99830.50;5153027;27;19927;-56
2022/12/23 12:52:38;;;;;;;;;;;;;;;18.05;48.09;99819.47;5149739;27;19934;-56
2022/12/23 12:55:14;;;;;;;;;;;;;;;18.04;48.12;99817.81;5168021;27;19923;-55
2022/12/23 12:57:39;;;;;;;;;;;;;;;18.05;47.88;99813.97;5170436;27;19978;-56
2022/12/23 13:00:05;;;;;;;;;;;;;;;18.04;47.97;99804.88;5188599;27;19931;-56
2022/12/23 13:02:51;;;;;;;;;;;;;;;18.05;47.86;99802.94;5166604;27;19931;-56
2022/12/23 13:05:36;;;;;;;;;;;;;;;18.05;48.08;99787.25;5147555;27;19924;-56
2022/12/23 13:10:42;;;;;;;;;;;;;;;18.04;48.13;99774.56;5189527;27;19925;-56
2022/12/23 13:13:28;;;;;;;;;;;;;;;18.04;47.79;99793.84;5189162;27;19973;-55
2022/12/23 13:15:57;;;;;;;;;;;;;;;18.05;47.90;99794.69;5174109;27;19982;-56
2022/12/23 13:18:29;;;;;;;;;;;;;;;18.05;47.95;99775.41;5189922;27;20059;-56